Time;durP1;ratioP1;P1;durP2;ratioP2;P2;SDS_P1;SDS_P2;PMS_P1;PMS_P2;Temp;Humidity;BMP_temperature;BMP_pressure;BME280_temperature;BME280_humidity;BME280_pressure;Samples;Min_cycle;Max_cycle;Signal;HPM_P1;HPM_P2
2022/04/05 00:00:00;;;;;;;11.10;7.03;;;6.00;99.90;;;;;;4946658;28;20196;-86
2022/04/05 00:02:26;;;;;;;10.67;6.53;;;6.10;99.90;;;;;;4921928;28;20208;-84
2022/04/05 00:04:51;;;;;;;16.30;6.73;;;6.00;99.90;;;;;;4939252;28;20239;-86
2022/04/05 00:07:17;;;;;;;8.93;6.80;;;6.10;99.90;;;;;;4923905;28;20818;-84
2022/04/05 00:09:43;;;;;;;14.50;6.95;;;6.00;99.90;;;;;;4932816;28;20189;-86
2022/04/05 00:12:08;;;;;;;9.07;6.20;;;6.00;99.90;;;;;;4921534;28;20658;-86
2022/04/05 00:14:34;;;;;;;13.67;6.30;;;6.00;99.90;;;;;;4944234;28;20212;-87
2022/04/05 00:17:02;;;;;;;10.23;6.20;;;6.00;99.90;;;;;;4924995;28;20404;-85
2022/04/05 00:19:28;;;;;;;9.10;5.95;;;6.00;99.90;;;;;;4941819;28;20463;-82
2022/04/05 00:21:54;;;;;;;11.57;5.80;;;6.00;99.90;;;;;;4928325;28;20191;-86
2022/04/05 00:24:20;;;;;;;9.17;5.80;;;6.00;99.90;;;;;;4925939;29;20551;-86
2022/04/05 00:26:45;;;;;;;9.17;6.67;;;6.00;99.90;;;;;;4930404;28;20906;-86
2022/04/05 00:29:11;;;;;;;6.73;4.70;;;;;;;;;;4931000;28;20444;-86
2022/04/05 00:31:37;;;;;;;7.90;6.70;;;6.00;99.90;;;;;;4945692;28;20678;-87
2022/04/05 00:34:02;;;;;;;9.43;6.60;;;6.00;99.90;;;;;;4924215;28;20450;-85
2022/04/05 00:36:28;;;;;;;9.87;6.20;;;6.00;99.90;;;;;;4940083;28;20976;-87
2022/04/05 00:38:53;;;;;;;9.03;6.53;;;6.00;99.90;;;;;;4923966;28;20216;-86
2022/04/05 00:41:19;;;;;;;8.87;5.83;;;6.00;99.90;;;;;;4946677;28;20216;-86
2022/04/05 00:43:44;;;;;;;9.83;6.30;;;6.00;99.90;;;;;;4942831;28;20176;-86
2022/04/05 00:46:10;;;;;;;10.77;7.20;;;6.00;99.90;;;;;;4943280;28;20341;-85
2022/04/05 00:48:51;;;;;;;12.30;6.53;;;6.00;99.90;;;;;;4926503;28;20211;-87
2022/04/05 00:51:18;;;;;;;10.35;6.80;;;6.00;99.90;;;;;;4946526;28;20180;-87
2022/04/05 00:53:47;;;;;;;12.88;6.68;;;6.00;99.90;;;;;;4933497;28;20313;-87
2022/04/05 00:56:15;;;;;;;7.20;5.30;;;6.00;99.90;;;;;;4940537;28;20205;-87
2022/04/05 00:58:42;;;;;;;7.68;5.63;;;6.00;99.90;;;;;;4944980;28;20601;-86
2022/04/05 01:01:15;;;;;;;10.18;6.00;;;6.00;99.90;;;;;;4964754;28;20203;-86
2022/04/05 01:03:48;;;;;;;10.05;7.57;;;6.00;99.90;;;;;;4943367;28;20195;-86
2022/04/05 01:06:18;;;;;;;17.63;7.38;;;5.90;99.90;;;;;;4941069;28;20192;-86
2022/04/05 01:08:48;;;;;;;10.20;6.88;;;5.90;99.90;;;;;;4948892;28;20326;-87
2022/04/05 01:11:14;;;;;;;10.77;7.32;;;5.80;99.90;;;;;;4967498;28;20192;-85
2022/04/05 01:13:40;;;;;;;13.70;6.13;;;5.90;99.90;;;;;;4952049;28;20223;-87
2022/04/05 01:16:06;;;;;;;8.80;6.47;;;5.80;99.90;;;;;;4966919;28;20444;-87
2022/04/05 01:18:33;;;;;;;8.13;6.45;;;5.80;99.90;;;;;;4940997;28;20480;-86
2022/04/05 01:21:00;;;;;;;7.95;6.18;;;5.80;99.90;;;;;;4968299;28;20184;-89
2022/04/05 01:23:25;;;;;;;10.05;7.15;;;5.90;99.90;;;;;;4939651;28;20195;-86
2022/04/05 01:25:52;;;;;;;7.63;6.30;;;5.60;99.90;;;;;;4951454;28;20185;-84
2022/04/05 01:28:19;;;;;;;9.82;6.40;;;5.70;99.90;;;;;;4967522;28;20461;-86
2022/04/05 01:30:45;;;;;;;9.27;5.75;;;5.80;99.90;;;;;;4963965;28;20188;-87
2022/04/05 01:33:11;;;;;;;10.93;6.70;;;5.80;99.90;;;;;;4965173;28;20247;-86
2022/04/05 01:35:36;;;;;;;9.40;7.63;;;5.80;99.90;;;;;;4950488;28;20195;-86
2022/04/05 01:38:03;;;;;;;9.20;5.60;;;6.10;99.90;;;;;;4963274;28;20464;-88
2022/04/05 01:40:29;;;;;;;6.47;5.85;;;5.70;99.90;;;;;;4967639;28;20176;-86
2022/04/05 01:42:55;;;;;;;11.90;7.57;;;5.70;99.90;;;;;;4952364;28;20601;-86
2022/04/05 01:45:21;;;;;;;9.00;6.35;;;5.70;99.90;;;;;;4964960;28;20275;-88
2022/04/05 01:47:47;;;;;;;11.87;7.70;;;5.80;99.90;;;;;;4964536;28;20230;-85
2022/04/05 01:50:12;;;;;;;11.20;6.47;;;5.70;99.90;;;;;;4939297;28;20447;-89
2022/04/05 01:52:38;;;;;;;14.07;7.10;;;5.70;99.90;;;;;;4954571;28;20216;-87
2022/04/05 01:55:08;;;;;;;10.93;7.63;;;5.60;99.90;;;;;;4968942;28;20248;-87
2022/04/05 01:57:34;;;;;;;10.80;6.97;;;5.60;99.90;;;;;;4972138;28;20713;-86
2022/04/05 02:00:01;;;;;;;8.47;6.37;;;;;;;;;;4958150;28;20203;-85
2022/04/05 02:02:27;;;;;;;11.80;7.60;;;5.50;99.90;;;;;;4961661;28;20952;-87
2022/04/05 02:04:53;;;;;;;7.97;6.57;;;;;;;;;;4973426;28;20186;-87
2022/04/05 02:07:19;;;;;;;10.60;7.30;;;5.40;99.90;;;;;;4958039;28;20207;-85
2022/04/05 02:09:47;;;;;;;11.55;6.00;;;5.40;99.90;;;;;;4957074;28;20442;-85
2022/04/05 02:12:13;;;;;;;9.85;6.75;;;5.30;99.90;;;;;;4972885;28;20635;-87
2022/04/05 02:14:39;;;;;;;19.87;8.90;;;5.30;99.90;;;;;;4958125;28;20196;-88
2022/04/05 02:17:06;;;;;;;11.55;7.32;;;5.30;99.90;;;;;;4974764;28;20302;-87
2022/04/05 02:19:32;;;;;;;11.98;7.53;;;5.20;99.90;;;;;;4952909;28;20211;-84
2022/04/05 02:21:57;;;;;;;7.80;6.70;;;5.10;99.90;;;;;;4978967;28;20180;-88
2022/04/05 02:24:23;;;;;;;14.57;8.40;;;5.10;99.90;;;;;;4973152;28;20207;-88
2022/04/05 02:26:49;;;;;;;13.20;8.07;;;5.10;99.90;;;;;;4950538;28;20831;-85
2022/04/05 02:29:15;;;;;;;10.43;6.75;;;5.10;99.90;;;;;;4973711;28;20255;-87
2022/04/05 02:31:41;;;;;;;13.37;8.17;;;5.10;99.90;;;;;;4981000;28;20624;-85
2022/04/05 02:34:07;;;;;;;10.47;7.63;;;5.10;99.90;;;;;;4969308;28;20442;-87
2022/04/05 02:36:33;;;;;;;9.25;7.20;;;5.00;99.90;;;;;;4982254;28;20195;-85
2022/04/05 02:39:00;;;;;;;13.50;8.23;;;;;;;;;;4970288;28;20207;-87
2022/04/05 02:41:25;;;;;;;12.75;7.35;;;4.90;99.90;;;;;;4970007;28;20176;-85
2022/04/05 02:43:51;;;;;;;10.90;7.00;;;4.90;99.90;;;;;;4975225;28;20192;-87
2022/04/05 02:46:17;;;;;;;11.30;7.83;;;4.90;99.90;;;;;;4952322;28;20322;-86
2022/04/05 02:48:46;;;;;;;11.27;6.47;;;4.50;99.90;;;;;;4946684;28;20234;-87
2022/04/05 02:51:12;;;;;;;7.78;5.47;;;5.00;99.90;;;;;;4960916;28;20184;-84
2022/04/05 02:53:38;;;;;;;11.00;6.75;;;5.00;99.90;;;;;;4970097;28;20266;-85
2022/04/05 02:56:04;;;;;;;14.30;7.60;;;5.10;99.90;;;;;;4962254;28;20279;-86
2022/04/05 02:58:30;;;;;;;13.77;7.67;;;5.10;99.90;;;;;;4957371;28;20468;-85
2022/04/05 03:00:55;;;;;;;10.40;6.70;;;5.10;99.90;;;;;;4933496;28;20195;-87
2022/04/05 03:03:21;;;;;;;11.73;5.57;;;;;;;;;;4945701;28;20204;-84
2022/04/05 03:05:47;;;;;;;12.30;7.80;;;5.10;99.90;;;;;;4957944;28;20180;-88
2022/04/05 03:08:13;;;;;;;6.77;5.50;;;5.20;99.90;;;;;;4936390;28;21653;-85
2022/04/05 03:10:38;;;;;;;10.63;7.23;;;5.10;99.90;;;;;;4933143;28;20193;-86
2022/04/05 03:13:04;;;;;;;10.90;6.50;;;5.10;99.90;;;;;;4964638;28;21335;-85
2022/04/05 03:15:30;;;;;;;10.95;6.25;;;5.10;99.90;;;;;;4952591;28;20188;-85
2022/04/05 03:17:55;;;;;;;11.27;7.93;;;5.10;99.90;;;;;;4932602;28;20212;-86
2022/04/05 03:20:22;;;;;;;16.70;7.73;;;5.10;99.90;;;;;;4929809;28;21141;-86
2022/04/05 03:22:47;;;;;;;12.98;7.63;;;4.90;99.90;;;;;;4946623;28;20189;-86
2022/04/05 03:25:13;;;;;;;14.30;8.10;;;5.00;99.90;;;;;;4930364;28;20198;-86
2022/04/05 03:27:43;;;;;;;13.83;8.80;;;5.00;99.90;;;;;;4929956;28;20283;-86
2022/04/05 03:30:11;;;;;;;16.77;8.77;;;5.00;99.90;;;;;;4929063;28;20188;-86
2022/04/05 03:32:37;;;;;;;10.43;7.28;;;4.90;99.90;;;;;;4942917;28;20187;-87
2022/04/05 03:35:18;;;;;;;9.27;7.23;;;5.00;99.90;;;;;;4943065;28;20185;-88
2022/04/05 03:37:44;;;;;;;10.32;6.82;;;5.00;99.90;;;;;;4927135;28;20219;-84
2022/04/05 03:40:12;;;;;;;7.60;5.60;;;5.70;99.90;;;;;;4946106;28;20216;-83
2022/04/05 03:42:37;;;;;;;6.03;5.43;;;5.00;99.90;;;;;;4966736;28;20185;-84
2022/04/05 03:45:04;;;;;;;13.00;7.67;;;5.00;99.90;;;;;;4953313;28;20263;-86
2022/04/05 03:47:31;;;;;;;9.25;7.05;;;5.00;99.90;;;;;;4954602;28;20221;-86
2022/04/05 03:49:56;;;;;;;9.68;6.63;;;5.00;99.90;;;;;;4938914;28;20219;-87
2022/04/05 03:52:22;;;;;;;7.20;5.03;;;5.00;99.90;;;;;;4955526;28;20188;-87
2022/04/05 03:54:47;;;;;;;12.97;7.20;;;4.90;99.90;;;;;;4934839;28;20280;-85
2022/04/05 03:57:13;;;;;;;17.40;7.50;;;5.00;99.90;;;;;;4935072;28;20395;-83
2022/04/05 03:59:39;;;;;;;6.67;5.07;;;5.00;99.90;;;;;;4965856;28;20500;-83
2022/04/05 04:02:04;;;;;;;16.23;8.60;;;5.00;99.90;;;;;;4938772;29;20240;-84
2022/04/05 04:04:30;;;;;;;6.87;5.60;;;5.00;99.90;;;;;;4965742;28;20184;-86
2022/04/05 04:06:56;;;;;;;13.88;7.25;;;;;;;;;;4962824;28;20189;-87
2022/04/05 04:09:23;;;;;;;9.27;6.97;;;5.00;99.90;;;;;;4930473;28;20189;-88
2022/04/05 04:11:49;;;;;;;9.80;7.38;;;4.80;99.90;;;;;;4950418;28;20196;-85
2022/04/05 04:14:15;;;;;;;13.38;6.90;;;5.00;99.90;;;;;;4964323;28;20622;-87
2022/04/05 04:16:40;;;;;;;11.40;6.90;;;4.90;99.90;;;;;;4935536;28;20658;-86
2022/04/05 04:19:06;;;;;;;10.10;6.77;;;4.90;99.90;;;;;;4964942;28;20813;-86
2022/04/05 04:21:31;;;;;;;10.50;6.83;;;4.80;99.90;;;;;;4935605;28;20181;-87
2022/04/05 04:23:57;;;;;;;12.10;7.47;;;4.80;99.90;;;;;;4948576;28;20192;-88
2022/04/05 04:26:23;;;;;;;12.77;6.53;;;4.80;99.90;;;;;;4963356;28;20196;-87
2022/04/05 04:28:52;;;;;;;12.27;7.53;;;4.80;99.90;;;;;;4961612;28;20240;-88
2022/04/05 04:31:18;;;;;;;10.45;7.03;;;4.80;99.90;;;;;;4934097;28;20264;-87
2022/04/05 04:33:44;;;;;;;11.40;7.57;;;4.70;99.90;;;;;;4964126;28;20208;-86
2022/04/05 04:36:10;;;;;;;10.20;7.57;;;4.80;99.90;;;;;;4940548;28;20285;-88
2022/04/05 04:38:35;;;;;;;9.40;6.90;;;4.70;99.90;;;;;;4954060;28;20523;-87
2022/04/05 04:41:01;;;;;;;14.50;8.57;;;;;;;;;;4945364;28;20185;-86
2022/04/05 04:43:27;;;;;;;10.73;8.50;;;4.70;99.90;;;;;;4923909;28;20188;-86
2022/04/05 04:45:53;;;;;;;14.93;10.33;;;;;;;;;;4937729;28;20444;-87
2022/04/05 04:48:19;;;;;;;11.85;6.95;;;4.60;99.90;;;;;;4926165;28;20208;-85
2022/04/05 04:50:46;;;;;;;9.13;7.88;;;4.60;99.90;;;;;;4940353;28;21167;-82
2022/04/05 04:53:12;;;;;;;13.02;8.30;;;4.50;99.90;;;;;;4942495;28;20191;-84
2022/04/05 04:55:38;;;;;;;9.40;7.47;;;4.60;99.90;;;;;;4943872;28;20200;-83
2022/04/05 04:58:03;;;;;;;12.10;8.00;;;4.50;99.90;;;;;;4941423;28;20251;-85
2022/04/05 05:00:29;;;;;;;14.60;9.40;;;4.50;99.90;;;;;;4931299;28;20483;-83
2022/04/05 05:02:55;;;;;;;10.57;7.80;;;4.50;99.90;;;;;;4918590;28;20348;-82
2022/04/05 05:05:21;;;;;;;13.93;9.43;;;4.30;99.90;;;;;;4929690;28;20267;-83
2022/04/05 05:07:50;;;;;;;10.75;9.02;;;4.50;99.90;;;;;;4915479;28;20721;-83
2022/04/05 05:10:17;;;;;;;9.40;6.97;;;4.50;99.90;;;;;;4914557;28;20188;-87
2022/04/05 05:12:45;;;;;;;14.27;8.23;;;4.50;99.90;;;;;;4915086;28;20188;-82
2022/04/05 05:15:17;;;;;;;12.45;7.57;;;4.40;99.90;;;;;;4933264;28;20184;-83
2022/04/05 05:17:46;;;;;;;12.80;8.50;;;4.50;99.90;;;;;;4937912;28;20196;-85
2022/04/05 05:20:13;;;;;;;15.48;9.00;;;4.40;99.90;;;;;;4949989;28;22428;-85
2022/04/05 05:22:39;;;;;;;9.45;7.65;;;4.40;99.90;;;;;;4927779;29;20184;-85
2022/04/05 05:25:07;;;;;;;11.25;8.80;;;4.40;99.90;;;;;;4919896;29;20192;-87
2022/04/05 05:27:33;;;;;;;13.73;8.15;;;4.40;99.90;;;;;;4918909;29;20223;-88
2022/04/05 05:30:00;;;;;;;12.97;8.90;;;4.40;99.90;;;;;;4917123;28;20188;-87
2022/04/05 05:32:26;;;;;;;16.17;11.50;;;4.40;99.90;;;;;;4935624;28;20184;-86
2022/04/05 05:34:51;;;;;;;11.30;8.32;;;4.40;99.90;;;;;;4919246;28;20184;-84
2022/04/05 05:37:23;;;;;;;10.73;8.30;;;4.40;99.90;;;;;;4927181;29;20204;-87
2022/04/05 05:39:48;;;;;;;14.40;9.20;;;4.40;99.90;;;;;;4919566;28;20219;-85
2022/04/05 05:42:14;;;;;;;15.70;9.47;;;4.40;99.90;;;;;;4941111;28;20181;-85
2022/04/05 05:44:39;;;;;;;13.73;8.07;;;4.50;99.90;;;;;;4920635;28;20186;-86
2022/04/05 05:47:05;;;;;;;14.23;8.67;;;4.50;99.90;;;;;;4919361;28;20204;-88
2022/04/05 05:49:32;;;;;;;15.63;10.70;;;4.50;99.90;;;;;;4918434;29;20207;-83
2022/04/05 05:51:57;;;;;;;12.23;9.30;;;4.50;99.90;;;;;;4914750;28;21481;-87
2022/04/05 05:54:23;;;;;;;16.30;7.90;;;4.60;99.90;;;;;;4935702;28;20199;-85
2022/04/05 05:56:48;;;;;;;11.47;7.43;;;4.70;99.90;;;;;;4915661;28;20255;-86
2022/04/05 05:59:14;;;;;;;17.93;8.73;;;;;;;;;;4938348;28;20225;-88
2022/04/05 06:01:42;;;;;;;11.50;8.50;;;4.70;99.90;;;;;;4922848;29;20188;-86
2022/04/05 06:04:07;;;;;;;12.75;8.68;;;4.70;99.90;;;;;;4940306;28;20514;-87
2022/04/05 06:06:33;;;;;;;11.50;8.30;;;4.70;99.90;;;;;;4924549;29;20181;-86
2022/04/05 06:08:59;;;;;;;11.17;8.20;;;4.70;99.90;;;;;;4939268;28;20208;-91
2022/04/05 06:11:25;;;;;;;13.93;8.50;;;4.80;99.90;;;;;;4950890;29;20203;-85
2022/04/05 06:13:51;;;;;;;17.73;8.10;;;4.90;99.90;;;;;;4946572;28;20181;-85
2022/04/05 06:16:18;;;;;;;14.85;7.90;;;4.90;99.90;;;;;;4935588;29;20511;-87
2022/04/05 06:18:44;;;;;;;14.25;8.70;;;4.90;99.90;;;;;;4926645;28;20204;-88
2022/04/05 06:21:10;;;;;;;13.55;7.60;;;4.90;99.90;;;;;;4932378;28;20184;-89
2022/04/05 06:23:36;;;;;;;13.00;8.80;;;4.90;99.90;;;;;;4923318;28;20248;-88
2022/04/05 06:26:01;;;;;;;11.60;9.50;;;5.00;99.90;;;;;;4922426;28;21080;-90
2022/04/05 06:28:27;;;;;;;16.00;8.40;;;5.00;99.90;;;;;;4944091;28;20208;-87
2022/04/05 06:30:53;;;;;;;14.63;8.00;;;5.00;99.90;;;;;;4917107;28;20231;-86
2022/04/05 06:33:22;;;;;;;10.33;6.40;;;5.00;99.90;;;;;;4919367;29;20188;-87
2022/04/05 06:35:50;;;;;;;10.95;8.13;;;5.00;99.90;;;;;;4938478;28;20248;-87
2022/04/05 06:38:16;;;;;;;16.92;7.65;;;5.00;99.90;;;;;;4924491;28;20208;-86
2022/04/05 06:40:43;;;;;;;12.55;8.48;;;5.00;99.90;;;;;;4927630;29;20203;-84
2022/04/05 06:43:09;;;;;;;10.48;8.25;;;5.00;99.90;;;;;;4925700;28;20718;-87
2022/04/05 06:45:35;;;;;;;11.40;7.73;;;5.10;99.90;;;;;;4944692;28;20188;-88
2022/04/05 06:48:03;;;;;;;11.02;8.05;;;5.10;99.90;;;;;;4926722;28;20492;-87
2022/04/05 06:50:29;;;;;;;13.82;7.15;;;5.10;99.90;;;;;;4926273;28;20188;-84
2022/04/05 06:52:57;;;;;;;8.82;6.30;;;5.10;99.90;;;;;;4928590;28;20177;-87
2022/04/05 06:55:24;;;;;;;13.02;7.18;;;5.20;99.90;;;;;;4943753;28;20216;-87
2022/04/05 06:57:50;;;;;;;9.23;6.82;;;5.30;99.90;;;;;;4925420;28;20215;-86
2022/04/05 07:00:18;;;;;;;11.83;8.70;;;5.20;99.90;;;;;;4942724;28;20204;-87
2022/04/05 07:02:45;;;;;;;10.48;6.55;;;5.20;99.90;;;;;;4937869;28;20227;-85
2022/04/05 07:05:12;;;;;;;9.50;7.15;;;5.20;99.90;;;;;;4957537;28;20180;-88
2022/04/05 07:07:38;;;;;;;10.35;7.03;;;5.30;99.90;;;;;;4945207;28;20208;-88
2022/04/05 07:10:05;;;;;;;9.88;6.13;;;5.30;99.90;;;;;;4940862;28;20457;-88
2022/04/05 07:12:32;;;;;;;8.98;7.10;;;5.40;99.90;;;;;;4926766;28;20279;-88
2022/04/05 07:14:57;;;;;;;7.15;5.68;;;5.40;99.90;;;;;;4925232;28;20184;-86
2022/04/05 07:17:23;;;;;;;10.93;7.23;;;5.40;99.90;;;;;;4925652;29;20208;-86
2022/04/05 07:19:48;;;;;;;15.13;8.40;;;5.50;99.90;;;;;;4942461;28;20219;-88
2022/04/05 07:22:14;;;;;;;12.70;7.90;;;5.40;99.90;;;;;;4933186;29;20909;-87
2022/04/05 07:24:39;;;;;;;9.80;7.17;;;5.60;99.90;;;;;;4932494;29;20235;-88
2022/04/05 07:27:05;;;;;;;11.13;7.10;;;5.80;99.90;;;;;;4933022;28;20240;-88
2022/04/05 07:29:31;;;;;;;10.27;7.37;;;5.70;99.90;;;;;;4925408;28;20181;-86
2022/04/05 07:31:56;;;;;;;16.23;5.83;;;5.90;99.90;;;;;;4939272;28;20283;-85
2022/04/05 07:34:22;;;;;;;10.70;6.23;;;5.80;99.90;;;;;;4932455;29;20189;-87
2022/04/05 07:36:47;;;;;;;9.00;7.33;;;6.00;99.90;;;;;;4926524;28;20979;-86
2022/04/05 07:39:13;;;;;;;13.10;7.10;;;6.00;99.90;;;;;;4929953;28;20223;-89
2022/04/05 07:41:39;;;;;;;6.90;5.60;;;6.00;99.90;;;;;;4927698;28;20176;-86
2022/04/05 07:44:05;;;;;;;9.70;6.97;;;5.80;99.90;;;;;;4929976;28;20686;-87
2022/04/05 07:46:30;;;;;;;9.93;6.03;;;5.80;99.90;;;;;;4944926;28;21161;-87
2022/04/05 07:48:56;;;;;;;13.00;8.23;;;5.90;99.90;;;;;;4947607;28;20295;-86
2022/04/05 07:51:21;;;;;;;9.00;6.70;;;5.80;99.90;;;;;;4946260;28;20850;-87
2022/04/05 07:53:47;;;;;;;7.40;5.50;;;5.80;99.90;;;;;;4947213;28;20188;-87
2022/04/05 07:56:13;;;;;;;10.00;5.83;;;5.80;99.90;;;;;;4932253;28;20336;-88
2022/04/05 07:58:43;;;;;;;12.52;7.63;;;5.80;99.90;;;;;;4932469;28;20212;-85
2022/04/05 08:01:09;;;;;;;8.50;6.20;;;5.90;99.90;;;;;;4925254;28;20185;-87
2022/04/05 08:03:35;;;;;;;7.45;5.55;;;5.90;99.90;;;;;;4927648;28;20180;-87
2022/04/05 08:06:01;;;;;;;8.48;6.32;;;5.90;99.90;;;;;;4939456;28;20195;-87
2022/04/05 08:08:28;;;;;;;7.43;5.80;;;5.80;99.90;;;;;;4923758;28;20212;-89
2022/04/05 08:10:57;;;;;;;8.40;6.30;;;5.80;99.90;;;;;;4923777;28;20547;-87
2022/04/05 08:13:23;;;;;;;8.95;6.55;;;5.80;99.90;;;;;;4923127;28;20239;-87
2022/04/05 08:15:48;;;;;;;10.37;5.57;;;5.90;99.90;;;;;;4925128;28;20184;-85
2022/04/05 08:18:14;;;;;;;9.57;6.73;;;5.90;99.90;;;;;;4924589;28;20472;-85
2022/04/05 08:20:41;;;;;;;10.47;6.20;;;5.90;99.90;;;;;;4938151;28;20450;-87
2022/04/05 08:23:10;;;;;;;11.35;6.20;;;6.00;99.90;;;;;;4920103;28;20243;-87
2022/04/05 08:25:36;;;;;;;12.10;6.75;;;6.00;99.90;;;;;;4925312;29;20191;-87
2022/04/05 08:28:03;;;;;;;8.43;5.85;;;6.00;99.90;;;;;;4923961;28;20204;-87
2022/04/05 08:30:29;;;;;;;9.02;6.50;;;6.00;99.90;;;;;;4927994;28;20193;-86
2022/04/05 08:32:58;;;;;;;7.50;6.10;;;6.00;99.90;;;;;;4923944;28;20761;-87
2022/04/05 08:35:25;;;;;;;7.68;6.25;;;6.10;99.90;;;;;;4941119;28;20455;-85
2022/04/05 08:37:54;;;;;;;13.45;5.82;;;6.10;99.90;;;;;;4931396;28;20227;-87
2022/04/05 08:40:23;;;;;;;9.20;5.80;;;6.10;99.90;;;;;;4947126;28;20204;-87
2022/04/05 08:42:52;;;;;;;5.93;5.07;;;6.10;99.90;;;;;;4926106;28;20278;-85
2022/04/05 08:45:19;;;;;;;9.23;5.63;;;6.20;99.90;;;;;;4943585;28;20212;-86
2022/04/05 08:47:48;;;;;;;12.07;5.25;;;6.30;99.90;;;;;;4939849;28;20294;-84
2022/04/05 08:50:16;;;;;;;9.63;4.82;;;6.40;99.90;;;;;;4944784;28;20955;-87
2022/04/05 08:52:44;;;;;;;8.30;5.60;;;6.40;99.90;;;;;;4926214;28;20193;-87
2022/04/05 08:55:10;;;;;;;10.05;6.45;;;6.50;99.90;;;;;;4938795;28;20192;-87
2022/04/05 08:57:35;;;;;;;7.37;5.27;;;6.40;99.90;;;;;;4927409;28;20215;-85
2022/04/05 09:00:03;;;;;;;8.10;5.37;;;6.40;99.90;;;;;;4939530;28;20471;-86
2022/04/05 09:02:29;;;;;;;8.68;5.70;;;;;;;;;;4942614;28;20187;-86
2022/04/05 09:04:55;;;;;;;7.80;6.17;;;6.70;99.90;;;;;;4955527;28;20184;-85
2022/04/05 09:07:23;;;;;;;8.17;5.50;;;6.70;99.90;;;;;;4962583;28;21050;-85
2022/04/05 09:10:08;;;;;;;7.82;5.00;;;6.80;99.90;;;;;;4957543;28;20191;-86
2022/04/05 09:12:50;;;;;;;10.85;5.70;;;6.80;99.90;;;;;;4959386;28;20195;-85
2022/04/05 09:15:16;;;;;;;6.07;4.45;;;6.90;99.90;;;;;;4979876;28;20238;-84
2022/04/05 09:17:43;;;;;;;11.47;6.23;;;6.70;99.90;;;;;;4960361;28;20286;-87
2022/04/05 09:20:10;;;;;;;9.60;6.53;;;6.80;99.90;;;;;;4950354;28;20365;-88
2022/04/05 09:22:36;;;;;;;8.55;5.63;;;6.90;99.90;;;;;;4957079;28;20183;-86
2022/04/05 09:25:04;;;;;;;7.00;4.97;;;6.90;99.90;;;;;;4945732;28;20213;-87
2022/04/05 09:27:52;;;;;;;7.05;5.10;;;7.10;99.90;;;;;;4959628;28;20211;-86
2022/04/05 09:30:31;;;;;;;8.40;4.68;;;7.10;99.90;;;;;;4959701;28;20206;-86
2022/04/05 09:32:59;;;;;;;6.45;4.78;;;7.00;99.90;;;;;;4971582;28;20205;-87
2022/04/05 09:35:39;;;;;;;8.13;5.90;;;7.20;99.90;;;;;;4958735;28;20188;-86
2022/04/05 09:38:14;;;;;;;6.22;4.63;;;7.40;99.90;;;;;;4949982;28;20317;-87
2022/04/05 09:40:41;;;;;;;9.05;6.03;;;7.30;99.90;;;;;;4959734;28;20186;-87
2022/04/05 09:43:14;;;;;;;6.97;4.45;;;7.50;99.90;;;;;;4944756;28;20198;-83
2022/04/05 09:45:58;;;;;;;12.70;5.60;;;7.70;99.90;;;;;;4963410;28;20184;-88
2022/04/05 09:48:26;;;;;;;6.78;5.18;;;7.50;99.90;;;;;;4947068;28;20207;-88
2022/04/05 09:51:18;;;;;;;7.15;5.57;;;7.50;99.90;;;;;;4944316;28;20279;-86
2022/04/05 09:53:45;;;;;;;6.85;4.30;;;7.50;99.90;;;;;;4942271;28;20192;-87
2022/04/05 09:56:31;;;;;;;5.45;4.07;;;7.40;99.90;;;;;;4975255;28;20193;-88
2022/04/05 09:59:13;;;;;;;6.40;4.65;;;7.40;99.90;;;;;;4959726;28;20219;-84
2022/04/05 10:01:39;;;;;;;5.57;3.97;;;7.70;99.90;;;;;;4978988;28;20880;-88
2022/04/05 10:04:06;;;;;;;7.07;4.63;;;7.70;99.90;;;;;;4949248;28;20239;-86
2022/04/05 10:06:33;;;;;;;6.70;4.00;;;8.00;99.90;;;;;;4951243;28;20184;-83
2022/04/05 10:09:02;;;;;;;6.00;4.03;;;7.80;99.90;;;;;;4956736;28;20200;-85
2022/04/05 10:11:32;;;;;;;8.32;4.43;;;7.60;99.90;;;;;;4945977;28;20607;-85
2022/04/05 10:13:58;;;;;;;6.45;4.40;;;7.90;99.90;;;;;;4961681;28;20183;-86
2022/04/05 10:16:30;;;;;;;4.35;2.35;;;7.70;99.90;;;;;;4964474;28;20198;-87
2022/04/05 10:18:57;;;;;;;7.80;4.97;;;7.80;99.90;;;;;;4962525;28;20310;-85
2022/04/05 10:21:27;;;;;;;6.78;3.20;;;7.70;99.90;;;;;;4978715;28;20199;-86
2022/04/05 10:23:55;;;;;;;7.20;4.45;;;7.80;99.90;;;;;;4960558;28;20896;-85
2022/04/05 10:26:30;;;;;;;6.75;4.15;;;8.00;99.90;;;;;;4977264;28;20187;-85
2022/04/05 10:28:58;;;;;;;5.68;4.72;;;8.00;99.90;;;;;;4940461;28;20211;-86
2022/04/05 10:31:47;;;;;;;4.80;4.40;;;8.00;99.90;;;;;;4938192;28;20196;-86
2022/04/05 10:34:36;;;;;;;9.10;3.55;;;8.10;99.90;;;;;;4954627;28;20183;-86
2022/04/05 10:37:06;;;;;;;8.30;4.07;;;8.20;99.90;;;;;;4964942;28;20200;-83
2022/04/05 10:39:32;;;;;;;4.65;3.63;;;8.20;99.90;;;;;;4961318;28;20214;-83
2022/04/05 10:42:11;;;;;;;5.30;3.22;;;8.20;99.90;;;;;;4961481;28;20605;-84
2022/04/05 10:44:38;;;;;;;6.57;4.03;;;8.50;99.90;;;;;;4960472;28;20224;-87
2022/04/05 10:47:06;;;;;;;6.15;4.57;;;8.60;99.90;;;;;;4961174;28;20192;-84
2022/04/05 10:49:54;;;;;;;10.70;5.63;;;8.60;99.90;;;;;;4962308;28;20188;-84
2022/04/05 10:52:27;;;;;;;6.05;4.38;;;8.80;99.90;;;;;;4941522;28;20187;-86
2022/04/05 10:55:04;;;;;;;6.47;4.28;;;8.70;99.90;;;;;;4946613;28;20196;-84
2022/04/05 10:57:32;;;;;;;6.93;3.92;;;8.70;99.90;;;;;;4949283;28;20219;-86
2022/04/05 11:00:37;;;;;;;3.58;3.28;;;8.80;99.90;;;;;;4954257;28;21155;-85
2022/04/05 11:03:05;;;;;;;8.45;4.07;;;9.10;99.90;;;;;;4906352;29;20244;-85
2022/04/05 11:05:37;;;;;;;5.50;3.75;;;9.30;99.90;;;;;;4907483;29;20181;-85
2022/04/05 11:08:07;;;;;;;5.72;3.92;;;9.00;99.90;;;;;;4944153;28;20231;-87
2022/04/05 11:10:39;;;;;;;5.93;3.65;;;8.90;99.90;;;;;;4961848;28;20266;-84
2022/04/05 11:13:05;;;;;;;4.10;3.70;;;9.00;99.90;;;;;;4937933;28;20286;-84
2022/04/05 11:15:43;;;;;;;5.90;3.77;;;8.80;99.90;;;;;;4957326;28;20599;-85
2022/04/05 11:18:10;;;;;;;4.05;3.15;;;9.00;99.90;;;;;;4943901;28;20199;-85
2022/04/05 11:20:38;;;;;;;5.20;3.30;;;9.20;99.90;;;;;;4944221;28;20195;-86
2022/04/05 11:23:05;;;;;;;7.05;4.22;;;9.10;99.90;;;;;;4960880;28;20191;-84
2022/04/05 11:25:32;;;;;;;9.00;4.15;;;9.10;99.90;;;;;;4960287;28;20270;-86
2022/04/05 11:28:21;;;;;;;5.68;4.47;;;9.00;99.90;;;;;;4962103;28;21188;-83
2022/04/05 11:31:02;;;;;;;4.00;2.88;;;9.10;99.90;;;;;;4962865;28;20653;-86
2022/04/05 11:33:34;;;;;;;6.40;3.30;;;9.20;99.90;;;;;;4943807;28;20242;-85
2022/04/05 11:36:14;;;;;;;4.57;3.47;;;9.10;99.90;;;;;;4948454;28;20164;-82
2022/04/05 11:38:47;;;;;;;4.53;3.00;;;8.90;99.90;;;;;;4982332;28;20218;-84
2022/04/05 11:41:23;;;;;;;3.92;2.65;;;10.80;99.90;;;;;;4962486;28;20897;-86
2022/04/05 11:43:51;;;;;;;6.13;4.10;;;8.90;99.90;;;;;;4943327;28;20179;-83
2022/04/05 11:46:19;;;;;;;3.90;3.08;;;8.90;99.90;;;;;;4948403;28;20184;-84
2022/04/05 11:48:48;;;;;;;4.28;3.10;;;9.10;99.90;;;;;;4944027;28;20784;-86
2022/04/05 11:51:17;;;;;;;5.15;3.75;;;9.30;99.90;;;;;;4964496;28;20195;-83
2022/04/05 11:53:44;;;;;;;3.67;3.28;;;9.40;99.90;;;;;;4964446;28;20227;-84
2022/04/05 11:56:13;;;;;;;7.63;4.18;;;9.60;99.90;;;;;;4950051;28;20212;-85
2022/04/05 11:58:42;;;;;;;3.95;3.15;;;9.90;99.90;;;;;;4969491;28;20219;-83
2022/04/05 12:01:10;;;;;;;5.68;3.00;;;9.60;99.90;;;;;;4974324;28;20191;-83
2022/04/05 12:03:48;;;;;;;2.97;2.67;;;9.70;99.90;;;;;;4984755;28;20183;-86
2022/04/05 12:06:18;;;;;;;4.60;3.83;;;9.60;99.90;;;;;;4953148;28;20194;-83
2022/04/05 12:08:45;;;;;;;6.45;3.30;;;10.00;99.90;;;;;;4953033;28;20199;-86
2022/04/05 12:11:10;;;;;;;4.07;2.97;;;10.00;99.90;;;;;;4967397;28;20172;-82
2022/04/05 12:13:36;;;;;;;4.00;3.43;;;9.60;99.90;;;;;;4993827;28;20206;-83
2022/04/05 12:16:04;;;;;;;3.05;2.75;;;10.10;99.90;;;;;;4988966;28;20184;-84
2022/04/05 12:18:30;;;;;;;7.93;3.25;;;10.00;99.90;;;;;;4975946;28;20211;-84
2022/04/05 12:21:01;;;;;;;6.60;2.70;;;9.90;99.90;;;;;;4971520;28;20322;-85
2022/04/05 12:23:33;;;;;;;6.45;4.10;;;12.60;99.90;;;;;;4949381;28;20454;-86
2022/04/05 12:26:07;;;;;;;6.50;3.65;;;10.10;99.90;;;;;;4948750;28;20200;-86
2022/04/05 12:28:44;;;;;;;10.73;4.22;;;10.20;99.90;;;;;;4966279;28;20207;-86
2022/04/05 12:31:31;;;;;;;8.50;3.10;;;10.70;99.90;;;;;;4946047;28;20230;-83
2022/04/05 12:34:09;;;;;;;8.20;4.75;;;10.70;99.90;;;;;;4961679;28;20222;-85
2022/04/05 12:36:36;;;;;;;3.30;3.00;;;10.40;99.90;;;;;;4947692;28;20218;-86
2022/04/05 12:39:05;;;;;;;4.45;3.40;;;10.20;99.90;;;;;;4959583;28;20634;-84
2022/04/05 12:41:41;;;;;;;5.72;3.70;;;10.20;99.90;;;;;;4960363;28;20184;-84
2022/04/05 12:44:09;;;;;;;5.00;3.53;;;10.20;99.90;;;;;;4960568;28;20270;-86
2022/04/05 12:46:41;;;;;;;4.82;3.60;;;10.20;99.90;;;;;;4961848;28;20180;-85
2022/04/05 12:49:24;;;;;;;4.15;2.88;;;10.40;99.90;;;;;;4958389;28;20208;-83
2022/04/05 12:51:51;;;;;;;5.57;4.47;;;10.00;99.90;;;;;;4962472;28;20225;-85
2022/04/05 12:54:28;;;;;;;4.50;3.90;;;9.90;99.90;;;;;;4947814;28;20192;-85
2022/04/05 12:57:28;;;;;;;5.32;4.03;;;10.40;99.90;;;;;;4943876;28;20202;-86
2022/04/05 13:00:10;;;;;;;5.25;3.67;;;10.50;99.90;;;;;;4960490;28;20219;-89